createdAt,value
2019-03-01T00:00:07.151Z,60.20
2019-03-01T00:01:07.141Z,61.30
2019-03-01T00:02:07.131Z,57.10
2019-03-01T00:03:07.127Z,57.30
2019-03-01T00:04:07.110Z,58.30
2019-03-01T00:05:07.097Z,60.00
2019-03-01T00:06:07.086Z,56.80
2019-03-01T00:07:07.075Z,62.10
2019-03-01T00:08:07.088Z,61.50
2019-03-01T00:09:07.054Z,60.90
2019-03-01T00:10:07.045Z,58.40
2019-03-01T00:11:07.030Z,56.00
2019-03-01T00:12:07.023Z,59.40
2019-03-01T00:13:07.009Z,58.00
2019-03-01T00:14:07.006Z,57.20
2019-03-01T00:15:06.986Z,55.30
2019-03-01T00:16:06.977Z,58.60
2019-03-01T00:17:06.968Z,60.30
2019-03-01T00:18:06.954Z,56.20
2019-03-01T00:19:06.954Z,57.50
2019-03-01T00:20:06.933Z,56.40
2019-03-01T00:21:06.922Z,59.70
2019-03-01T00:22:06.940Z,57.00
2019-03-01T00:23:06.902Z,56.20
2019-03-01T00:24:06.900Z,57.00
2019-03-01T00:25:06.882Z,61.30
2019-03-01T00:26:06.870Z,57.40
2019-03-01T00:27:06.860Z,60.60
2019-03-01T00:28:06.847Z,60.60
2019-03-01T00:29:06.844Z,56.20
2019-03-01T00:30:06.823Z,59.50
2019-03-01T00:31:06.817Z,61.00
2019-03-01T00:32:06.802Z,56.90
2019-03-01T00:33:06.790Z,58.30
2019-03-01T00:34:06.790Z,59.40
2019-03-01T00:35:06.769Z,59.70
2019-03-01T00:36:06.762Z,64.60
2019-03-01T00:37:06.748Z,60.60
2019-03-01T00:38:06.736Z,58.10
2019-03-01T00:39:06.734Z,60.90
2019-03-01T00:40:06.715Z,60.50
2019-03-01T00:41:06.704Z,57.70
2019-03-01T00:42:06.692Z,58.70
2019-03-01T00:43:06.681Z,59.30
2019-03-01T00:44:06.681Z,56.50
2019-03-01T00:45:06.665Z,55.40
2019-03-01T00:46:06.649Z,57.70
2019-03-01T00:47:06.637Z,55.80
2019-03-01T00:48:06.627Z,61.10
2019-03-01T00:49:06.625Z,58.70
2019-03-01T00:50:06.607Z,59.00
2019-03-01T00:51:06.594Z,57.50
2019-03-01T00:52:06.584Z,59.20
2019-03-01T00:53:06.572Z,56.00
2019-03-01T00:54:06.570Z,55.80
2019-03-01T00:55:06.551Z,56.20
2019-03-01T00:56:06.540Z,54.00
2019-03-01T00:57:06.528Z,55.60
2019-03-01T00:58:06.519Z,54.60
2019-03-01T00:59:06.516Z,53.60
2019-03-01T01:00:06.495Z,52.70
2019-03-01T01:01:06.484Z,55.60
2019-03-01T01:02:06.474Z,53.00
2019-03-01T01:03:06.466Z,52.30
2019-03-01T01:04:06.466Z,52.80
2019-03-01T01:05:06.443Z,54.80
2019-03-01T01:06:06.430Z,50.30
2019-03-01T01:07:06.427Z,53.10
2019-03-01T01:08:06.408Z,54.50
2019-03-01T01:09:06.409Z,51.80
2019-03-01T01:10:06.387Z,55.10
2019-03-01T01:11:06.376Z,53.00
2019-03-01T01:12:06.364Z,52.40
2019-03-01T01:13:06.353Z,50.90
2019-03-01T01:14:06.355Z,53.90
2019-03-01T01:15:06.332Z,51.50
2019-03-01T01:16:06.321Z,50.20
2019-03-01T01:17:06.313Z,53.00
2019-03-01T01:18:06.298Z,49.10
2019-03-01T01:19:06.298Z,49.70
2019-03-01T01:20:06.277Z,49.90
2019-03-01T01:21:06.267Z,48.10
2019-03-01T01:22:06.259Z,50.10
2019-03-01T01:23:06.245Z,51.40
2019-03-01T01:24:06.250Z,51.20
2019-03-01T01:25:06.221Z,49.60
2019-03-01T01:26:06.216Z,46.20
2019-03-01T01:27:06.199Z,49.10
2019-03-01T01:28:06.191Z,50.30
2019-03-01T01:29:06.191Z,49.10
2019-03-01T01:30:06.168Z,48.70
2019-03-01T01:31:06.156Z,49.10
2019-03-01T01:32:06.145Z,47.50
2019-03-01T01:33:06.135Z,46.40
2019-03-01T01:34:06.136Z,48.30
2019-03-01T01:35:06.112Z,44.70
2019-03-01T01:36:06.102Z,47.40
2019-03-01T01:37:06.092Z,47.20
2019-03-01T01:38:06.078Z,44.70
2019-03-01T01:39:06.078Z,46.90
2019-03-01T01:40:06.062Z,44.10
2019-03-01T01:41:06.047Z,45.30
2019-03-01T01:42:06.037Z,44.60
2019-03-01T01:43:06.025Z,47.20
2019-03-01T01:44:06.044Z,45.60
2019-03-01T01:45:06.040Z,43.80
2019-03-01T01:46:05.992Z,46.40
2019-03-01T01:47:05.981Z,44.80
2019-03-01T01:48:05.971Z,41.40
2019-03-01T01:49:05.959Z,42.60
2019-03-01T01:50:05.958Z,43.50
2019-03-01T01:51:05.941Z,44.90
2019-03-01T01:52:05.930Z,44.50
2019-03-01T01:53:05.917Z,42.60
2019-03-01T01:54:05.904Z,42.00
2019-03-01T01:55:05.905Z,42.50
2019-03-01T01:56:05.908Z,41.90
2019-03-01T01:57:05.871Z,43.20
2019-03-01T01:58:05.861Z,40.80
2019-03-01T01:59:05.851Z,41.30
2019-03-01T02:00:05.861Z,39.60
2019-03-01T02:01:05.828Z,43.20
2019-03-01T02:02:05.817Z,40.90
2019-03-01T02:03:05.809Z,42.30
2019-03-01T02:04:05.799Z,41.10
2019-03-01T02:05:05.793Z,42.00
2019-03-01T02:06:05.772Z,41.70
2019-03-01T02:07:05.764Z,42.50
2019-03-01T02:08:05.751Z,43.20
2019-03-01T02:09:05.740Z,41.80
2019-03-01T02:10:05.738Z,42.50
2019-03-01T02:11:05.719Z,40.90
2019-03-01T02:12:05.708Z,41.10
2019-03-01T02:13:05.698Z,41.00
2019-03-01T02:14:05.685Z,43.20
2019-03-01T02:15:05.686Z,42.00
2019-03-01T02:16:05.669Z,42.00
2019-03-01T02:17:05.654Z,41.80
2019-03-01T02:18:05.641Z,44.20
2019-03-01T02:19:05.631Z,40.40
2019-03-01T02:20:05.634Z,40.10
2019-03-01T02:21:05.609Z,43.30
2019-03-01T02:22:05.598Z,42.10
2019-03-01T02:23:05.589Z,44.00
2019-03-01T02:24:05.576Z,41.60
2019-03-01T02:25:05.581Z,43.80
2019-03-01T02:26:05.558Z,43.20
2019-03-01T02:27:05.545Z,46.00
2019-03-01T02:28:05.546Z,44.60
2019-03-01T02:29:05.524Z,44.60
2019-03-01T02:30:05.512Z,39.80
2019-03-01T02:31:05.573Z,41.90
2019-03-01T02:32:05.502Z,42.40
2019-03-01T02:33:05.481Z,40.70
2019-03-01T02:34:05.469Z,45.20
2019-03-01T02:35:05.461Z,43.20
2019-03-01T02:36:05.469Z,46.20
2019-03-01T02:37:05.445Z,47.60
2019-03-01T02:38:05.447Z,48.20
2019-03-01T02:39:05.419Z,47.40
2019-03-01T02:40:05.406Z,43.30
2019-03-01T02:41:05.405Z,44.00
2019-03-01T02:42:05.386Z,45.90
2019-03-01T02:43:05.376Z,46.30
2019-03-01T02:44:05.364Z,44.90
2019-03-01T02:45:05.355Z,44.30
2019-03-01T02:46:05.351Z,46.90
2019-03-01T02:47:05.331Z,48.20
2019-03-01T02:48:05.321Z,45.70
2019-03-01T02:49:05.310Z,47.60
2019-03-01T02:50:05.312Z,46.10
2019-03-01T02:51:05.311Z,48.70
2019-03-01T02:52:05.278Z,45.20
2019-03-01T02:53:05.267Z,47.20
2019-03-01T02:54:05.257Z,48.20
2019-03-01T02:55:05.246Z,46.20
2019-03-01T02:56:05.255Z,46.80
2019-03-01T02:57:05.252Z,47.20
2019-03-01T02:58:05.214Z,44.90
2019-03-01T02:59:05.202Z,46.00
2019-03-01T03:00:05.196Z,45.00
2019-03-01T03:01:05.185Z,45.50
2019-03-01T03:02:05.180Z,46.20
2019-03-01T03:03:05.159Z,47.30
2019-03-01T03:04:05.150Z,46.50
2019-03-01T03:05:05.140Z,46.10
2019-03-01T03:06:05.133Z,46.30
2019-03-01T03:07:05.126Z,45.80
2019-03-01T03:08:05.109Z,48.20
2019-03-01T03:09:05.096Z,48.00
2019-03-01T03:10:05.084Z,46.50
2019-03-01T03:11:05.079Z,44.30
2019-03-01T03:12:05.080Z,49.90
2019-03-01T03:13:05.054Z,48.80
2019-03-01T03:14:05.043Z,46.50
2019-03-01T03:15:05.034Z,50.10
2019-03-01T03:16:05.029Z,50.50
2019-03-01T03:17:05.020Z,48.60
2019-03-01T03:18:05.016Z,49.40
2019-03-01T03:19:04.988Z,49.90
2019-03-01T03:20:04.986Z,52.90
2019-03-01T03:21:04.967Z,51.60
2019-03-01T03:22:04.968Z,52.60
2019-03-01T03:23:04.949Z,51.00
2019-03-01T03:24:04.940Z,51.60
2019-03-01T03:25:04.924Z,51.20
2019-03-01T03:26:04.915Z,50.20
2019-03-01T03:27:04.912Z,46.20
2019-03-01T03:28:04.893Z,45.10
2019-03-01T03:29:04.883Z,48.20
2019-03-01T03:30:04.878Z,48.30
2019-03-01T03:31:04.862Z,50.70
2019-03-01T03:32:04.860Z,47.90
2019-03-01T03:33:04.841Z,50.20
2019-03-01T03:34:04.830Z,50.40
2019-03-01T03:35:04.819Z,52.20
2019-03-01T03:36:04.812Z,50.90
2019-03-01T03:37:04.834Z,48.30
2019-03-01T03:38:04.785Z,51.00
2019-03-01T03:39:04.779Z,51.50
2019-03-01T03:40:04.764Z,48.50
2019-03-01T03:41:04.757Z,48.50
2019-03-01T03:42:04.744Z,48.60
2019-03-01T03:43:04.743Z,51.70
2019-03-01T03:44:04.729Z,49.70
2019-03-01T03:45:04.709Z,47.30
2019-03-01T03:46:04.703Z,49.50
2019-03-01T03:47:04.689Z,48.20
2019-03-01T03:48:04.696Z,47.00
2019-03-01T03:49:04.667Z,50.10
2019-03-01T03:50:04.658Z,52.00
2019-03-01T03:51:04.648Z,59.00
2019-03-01T03:52:04.640Z,51.00
2019-03-01T03:53:04.635Z,51.20
2019-03-01T03:54:04.616Z,52.40
2019-03-01T03:55:04.609Z,53.70
2019-03-01T03:56:04.595Z,52.00
2019-03-01T03:57:04.592Z,49.00
2019-03-01T03:58:04.583Z,52.40
2019-03-01T03:59:04.561Z,49.70
2019-03-01T04:00:04.576Z,49.20
2019-03-01T04:01:04.542Z,53.60
2019-03-01T04:02:04.530Z,51.80
2019-03-01T04:03:04.531Z,59.90
2019-03-01T04:04:04.508Z,52.80
2019-03-01T04:05:04.500Z,50.50
2019-03-01T04:06:04.493Z,55.00
2019-03-01T04:07:04.476Z,52.00
2019-03-01T04:08:04.475Z,52.60
2019-03-01T04:09:04.453Z,48.70
2019-03-01T04:10:04.444Z,49.30
2019-03-01T04:11:04.436Z,53.10
2019-03-01T04:12:04.421Z,52.00
2019-03-01T04:13:04.420Z,55.10
2019-03-01T04:14:04.416Z,55.70
2019-03-01T04:15:04.390Z,58.80
2019-03-01T04:16:04.410Z,56.30
2019-03-01T04:17:04.369Z,55.80
2019-03-01T04:18:04.369Z,61.80
2019-03-01T04:19:04.346Z,61.30
2019-03-01T04:20:04.338Z,60.00
2019-03-01T04:21:04.329Z,59.30
2019-03-01T04:22:04.314Z,57.40
2019-03-01T04:23:04.315Z,60.10
2019-03-01T04:24:04.294Z,61.80
2019-03-01T04:25:04.282Z,56.70
2019-03-01T04:26:04.270Z,58.00
2019-03-01T04:27:04.262Z,62.50
2019-03-01T04:28:04.260Z,58.50
2019-03-01T04:29:04.240Z,60.10
2019-03-01T04:30:04.228Z,60.60
2019-03-01T04:31:04.234Z,60.40
2019-03-01T04:32:04.206Z,55.80
2019-03-01T04:33:04.205Z,59.40
2019-03-01T04:34:05.990Z,55.00
2019-03-01T04:35:04.177Z,59.20
2019-03-01T04:36:04.169Z,63.00
2019-03-01T04:37:04.155Z,59.40
2019-03-01T04:38:04.149Z,59.40
2019-03-01T04:39:04.131Z,60.80
2019-03-01T04:40:04.122Z,57.60
2019-03-01T04:41:04.111Z,57.80
2019-03-01T04:42:04.100Z,58.70
2019-03-01T04:43:04.098Z,58.50
2019-03-01T04:44:04.085Z,57.70
2019-03-01T04:45:04.069Z,59.10
2019-03-01T04:46:04.060Z,62.00
2019-03-01T04:47:04.046Z,62.30
2019-03-01T04:48:04.045Z,60.10
2019-03-01T04:49:04.024Z,61.20
2019-03-01T04:50:04.016Z,61.90
2019-03-01T04:51:04.006Z,60.30
2019-03-01T04:52:03.993Z,65.10
2019-03-01T04:53:03.991Z,59.50
2019-03-01T04:54:03.973Z,57.90
2019-03-01T04:55:03.964Z,61.50
2019-03-01T04:56:03.961Z,58.70
2019-03-01T04:57:03.940Z,58.60
2019-03-01T04:58:03.940Z,61.80
2019-03-01T04:59:03.921Z,62.10
2019-03-01T05:00:03.910Z,62.10
2019-03-01T05:01:03.897Z,63.30
2019-03-01T05:02:03.885Z,69.50
2019-03-01T05:03:03.884Z,60.90
2019-03-01T05:04:03.863Z,62.20
2019-03-01T05:05:03.853Z,66.00
2019-03-01T05:06:03.843Z,65.00
2019-03-01T05:07:03.832Z,64.00
2019-03-01T05:08:03.847Z,68.20
2019-03-01T05:09:03.811Z,63.90
2019-03-01T05:10:03.800Z,62.90
2019-03-01T05:11:03.788Z,66.70
2019-03-01T05:12:03.779Z,68.70
2019-03-01T05:13:03.767Z,65.80
2019-03-01T05:14:03.771Z,63.80
2019-03-01T05:15:03.749Z,67.40
2019-03-01T05:16:03.735Z,62.70
2019-03-01T05:17:03.725Z,65.90
2019-03-01T05:18:03.714Z,60.60
2019-03-01T05:19:03.713Z,62.50
2019-03-01T05:20:03.696Z,60.70
2019-03-01T05:21:03.686Z,65.30
2019-03-01T05:22:03.670Z,60.90
2019-03-01T05:23:03.664Z,57.50
2019-03-01T05:24:03.659Z,58.60
2019-03-01T05:25:03.641Z,56.90
2019-03-01T05:26:03.627Z,61.80
2019-03-01T05:27:03.617Z,59.90
2019-03-01T05:28:03.608Z,59.50
2019-03-01T05:29:03.605Z,59.40
2019-03-01T05:30:03.588Z,61.20
2019-03-01T05:31:03.574Z,59.20
2019-03-01T05:32:03.567Z,59.30
2019-03-01T05:33:03.562Z,56.30
2019-03-01T05:34:03.553Z,59.40
2019-03-01T05:35:03.540Z,59.50
2019-03-01T05:36:03.522Z,60.80
2019-03-01T05:37:03.514Z,58.10
2019-03-01T05:38:03.503Z,61.10
2019-03-01T05:39:03.498Z,58.00
2019-03-01T05:40:03.480Z,61.80
2019-03-01T05:41:03.469Z,62.60
2019-03-01T05:42:03.461Z,61.70
2019-03-01T05:43:03.448Z,61.70
2019-03-01T05:44:03.451Z,65.80
2019-03-01T05:45:03.425Z,61.80
2019-03-01T05:46:03.419Z,61.00
2019-03-01T05:47:03.403Z,61.50
2019-03-01T05:48:03.393Z,64.40
2019-03-01T05:49:03.391Z,63.60
2019-03-01T05:50:03.377Z,66.70
2019-03-01T05:51:03.362Z,68.00
2019-03-01T05:52:03.355Z,65.10
2019-03-01T05:53:03.340Z,63.20
2019-03-01T05:54:03.341Z,62.70
2019-03-01T05:55:03.320Z,65.30
2019-03-01T05:56:03.308Z,66.00
2019-03-01T05:57:03.296Z,67.70
2019-03-01T05:58:03.284Z,63.90
2019-03-01T05:59:03.320Z,63.20
2019-03-01T06:00:03.264Z,66.30
2019-03-01T06:01:03.294Z,65.30
2019-03-01T06:02:03.242Z,63.20
2019-03-01T06:03:03.232Z,64.80
2019-03-01T06:04:03.220Z,64.20
2019-03-01T06:05:03.217Z,64.00
2019-03-01T06:06:03.198Z,61.30
2019-03-01T06:07:03.191Z,63.30
2019-03-01T06:08:03.178Z,64.80
2019-03-01T06:09:03.166Z,62.00
2019-03-01T06:10:03.163Z,61.20
2019-03-01T06:11:03.143Z,63.60
2019-03-01T06:12:03.136Z,63.10
2019-03-01T06:13:03.127Z,64.20
2019-03-01T06:14:03.146Z,64.60
2019-03-01T06:15:03.143Z,62.60
2019-03-01T06:16:03.089Z,66.50
2019-03-01T06:17:03.078Z,61.30
2019-03-01T06:18:03.070Z,64.20
2019-03-01T06:19:03.057Z,63.90
2019-03-01T06:20:03.054Z,66.30
2019-03-01T06:21:03.035Z,60.90
2019-03-01T06:22:03.025Z,60.00
2019-03-01T06:23:03.017Z,64.50
2019-03-01T06:24:03.002Z,64.10
2019-03-01T06:25:03.004Z,65.60
2019-03-01T06:26:02.978Z,65.30
2019-03-01T06:27:02.970Z,69.20
2019-03-01T06:28:02.959Z,67.80
2019-03-01T06:29:02.949Z,67.80
2019-03-01T06:30:02.949Z,66.10
2019-03-01T06:31:02.940Z,64.30
2019-03-01T06:32:02.914Z,66.70
2019-03-01T06:33:02.906Z,69.70
2019-03-01T06:34:02.892Z,67.60
2019-03-01T06:35:02.895Z,70.90
2019-03-01T06:36:02.875Z,69.80
2019-03-01T06:37:02.866Z,68.80
2019-03-01T06:38:02.849Z,64.90
2019-03-01T06:39:02.841Z,67.10
2019-03-01T06:40:02.836Z,69.00
2019-03-01T06:41:02.818Z,69.20
2019-03-01T06:42:02.807Z,68.40
2019-03-01T06:43:02.794Z,67.40
2019-03-01T06:44:02.784Z,65.50
2019-03-01T06:45:02.781Z,66.80
2019-03-01T06:46:02.774Z,68.30
2019-03-01T06:47:02.754Z,68.10
2019-03-01T06:48:02.744Z,66.70
2019-03-01T06:49:02.730Z,74.90
2019-03-01T06:50:02.730Z,72.50
2019-03-01T06:51:02.707Z,68.90
2019-03-01T06:52:02.697Z,68.60
2019-03-01T06:53:02.690Z,74.50
2019-03-01T06:54:02.676Z,70.90
2019-03-01T06:55:02.678Z,68.60
2019-03-01T06:56:02.655Z,71.30
2019-03-01T06:57:02.644Z,65.80
2019-03-01T06:58:02.637Z,69.50
2019-03-01T06:59:02.623Z,73.70
2019-03-01T07:00:02.643Z,69.90
2019-03-01T07:01:02.601Z,68.00
2019-03-01T07:02:02.932Z,70.70
2019-03-01T07:03:02.577Z,68.20
2019-03-01T07:04:02.570Z,69.50
2019-03-01T07:05:02.559Z,70.80
2019-03-01T07:06:03.576Z,69.60
2019-03-01T07:07:02.535Z,72.10
2019-03-01T07:08:02.524Z,68.40
2019-03-01T07:09:02.513Z,70.30
2019-03-01T07:10:02.504Z,65.70
2019-03-01T07:11:02.500Z,71.90
2019-03-01T07:12:02.480Z,67.10
2019-03-01T07:13:02.470Z,73.60
2019-03-01T07:14:02.458Z,69.70
2019-03-01T07:15:02.447Z,73.30
2019-03-01T07:16:02.444Z,71.50
2019-03-01T07:17:02.426Z,70.50
2019-03-01T07:18:02.415Z,69.20
2019-03-01T07:19:02.404Z,71.50
2019-03-01T07:20:02.393Z,70.70
2019-03-01T07:21:02.391Z,75.20
2019-03-01T07:22:02.371Z,71.10
2019-03-01T07:23:02.367Z,70.70
2019-03-01T07:24:02.396Z,70.10
2019-03-01T07:25:02.338Z,69.80
2019-03-01T07:26:02.336Z,71.80
2019-03-01T07:27:02.317Z,75.10
2019-03-01T07:28:02.308Z,72.20
2019-03-01T07:29:02.294Z,75.40
2019-03-01T07:30:02.284Z,69.30
2019-03-01T07:31:02.283Z,75.20
2019-03-01T07:32:02.262Z,72.40
2019-03-01T07:33:02.255Z,72.10
2019-03-01T07:34:02.240Z,72.50
2019-03-01T07:35:02.229Z,69.50
2019-03-01T07:36:02.226Z,71.90
2019-03-01T07:37:02.213Z,72.50
2019-03-01T07:38:02.203Z,72.20
2019-03-01T07:39:02.185Z,73.90
2019-03-01T07:40:02.174Z,76.50
2019-03-01T07:41:02.172Z,73.00
2019-03-01T07:42:02.153Z,72.70
2019-03-01T07:43:02.141Z,75.00
2019-03-01T07:44:02.131Z,79.70
2019-03-01T07:45:02.120Z,78.60
2019-03-01T07:46:02.117Z,77.80
2019-03-01T07:47:02.098Z,75.10
2019-03-01T07:48:02.088Z,81.80
2019-03-01T07:49:02.078Z,73.90
2019-03-01T07:50:02.065Z,73.80
2019-03-01T07:51:02.485Z,76.70
2019-03-01T07:52:04.993Z,70.70
2019-03-01T07:53:03.749Z,72.30
2019-03-01T07:54:02.025Z,74.70
2019-03-01T07:55:02.023Z,74.20
2019-03-01T07:56:04.200Z,79.70
2019-03-01T07:57:01.991Z,71.20
2019-03-01T07:58:01.978Z,74.80
2019-03-01T07:59:01.968Z,74.20
2019-03-01T08:00:01.961Z,73.70
2019-03-01T08:01:01.955Z,78.80
2019-03-01T08:02:03.854Z,76.30
2019-03-01T08:03:01.925Z,75.20
2019-03-01T08:04:01.915Z,72.30
2019-03-01T08:05:04.087Z,77.70
2019-03-01T08:06:01.906Z,79.40
2019-03-01T08:07:01.880Z,74.70
2019-03-01T08:08:03.562Z,75.60
2019-03-01T08:09:01.871Z,77.30
2019-03-01T08:10:01.851Z,73.20
2019-03-01T08:11:01.847Z,77.70
2019-03-01T08:12:03.616Z,78.80
2019-03-01T08:13:02.814Z,77.20
2019-03-01T08:14:01.807Z,78.70
2019-03-01T08:15:04.117Z,83.90
2019-03-01T08:16:02.789Z,101.30
2019-03-01T08:17:01.772Z,89.20
2019-03-01T08:18:04.697Z,85.50
2019-03-01T08:19:02.748Z,83.40
2019-03-01T08:20:01.743Z,76.60
2019-03-01T08:21:01.728Z,84.50
2019-03-01T08:22:01.726Z,80.10
2019-03-01T08:23:02.028Z,80.70
2019-03-01T08:24:01.698Z,81.90
2019-03-01T08:25:01.685Z,85.20
2019-03-01T08:26:03.358Z,79.50
2019-03-01T08:27:01.673Z,80.00
2019-03-01T08:28:01.650Z,76.40
2019-03-01T08:29:01.641Z,81.30
2019-03-01T08:30:01.629Z,76.40
2019-03-01T08:31:01.619Z,83.60
2019-03-01T08:32:01.631Z,88.30
2019-03-01T08:33:02.675Z,79.90
2019-03-01T08:34:01.586Z,79.80
2019-03-01T08:35:01.574Z,80.60
2019-03-01T08:36:02.393Z,82.20
2019-03-01T08:37:01.561Z,82.80
2019-03-01T08:38:01.545Z,82.40
2019-03-01T08:39:04.945Z,80.70
2019-03-01T08:40:01.519Z,82.80
2019-03-01T08:41:01.507Z,85.90
2019-03-01T08:42:01.507Z,94.00
2019-03-01T08:43:01.494Z,89.70
2019-03-01T08:44:01.475Z,95.20
2019-03-01T08:45:01.465Z,91.70
2019-03-01T08:46:01.455Z,95.00
2019-03-01T08:47:01.453Z,93.90
2019-03-01T08:48:01.436Z,96.20
2019-03-01T08:49:01.654Z,100.40
2019-03-01T08:50:01.409Z,97.00
2019-03-01T08:51:01.400Z,104.20
2019-03-01T08:52:02.270Z,97.20
2019-03-01T08:53:01.377Z,104.90
2019-03-01T08:54:01.367Z,108.00
2019-03-01T08:55:03.718Z,110.90
2019-03-01T08:56:01.345Z,118.50
2019-03-01T08:57:01.343Z,121.60
2019-03-01T08:58:03.423Z,118.00
2019-03-01T08:59:02.319Z,120.70
2019-03-01T09:00:01.305Z,114.00
2019-03-01T09:01:04.015Z,117.30
2019-03-01T09:02:02.287Z,115.60
2019-03-01T09:03:01.267Z,125.00
2019-03-01T09:04:01.257Z,125.20
2019-03-01T09:05:01.520Z,128.50
2019-03-01T09:06:01.240Z,133.80
2019-03-01T09:07:01.682Z,124.20
2019-03-01T09:08:01.213Z,124.50
2019-03-01T09:09:01.202Z,124.30
2019-03-01T09:10:01.199Z,127.10
2019-03-01T09:11:01.179Z,126.50
2019-03-01T09:12:01.188Z,120.50
2019-03-01T09:13:01.158Z,123.50
2019-03-01T09:14:01.148Z,116.40
2019-03-01T09:15:04.525Z,116.90
2019-03-01T09:16:02.129Z,114.50
2019-03-01T09:17:01.125Z,127.40
2019-03-01T09:18:01.106Z,120.40
2019-03-01T09:19:01.097Z,125.20
2019-03-01T09:20:01.298Z,130.30
2019-03-01T09:21:05.615Z,120.00
2019-03-01T09:22:02.068Z,130.00
2019-03-01T09:23:04.961Z,124.00
2019-03-01T09:24:02.037Z,125.70
2019-03-01T09:25:02.530Z,129.70
2019-03-01T09:26:02.025Z,115.10
2019-03-01T09:27:01.031Z,123.70
2019-03-01T09:28:00.996Z,120.30
2019-03-01T09:29:00.987Z,125.60
2019-03-01T09:30:03.486Z,122.70
2019-03-01T09:31:00.963Z,129.20
2019-03-01T09:32:00.969Z,123.30
2019-03-01T09:33:00.953Z,134.10
2019-03-01T09:34:00.934Z,128.00
2019-03-01T09:35:04.189Z,131.40
2019-03-01T09:36:00.910Z,127.20
2019-03-01T09:37:00.897Z,134.90
2019-03-01T09:38:00.893Z,131.90
2019-03-01T09:39:00.877Z,138.10
2019-03-01T09:40:05.379Z,130.90
2019-03-01T09:41:04.568Z,127.60
2019-03-01T09:42:04.431Z,124.80
2019-03-01T09:43:01.844Z,122.70
2019-03-01T09:44:02.880Z,124.70
2019-03-01T09:45:00.811Z,128.70
2019-03-01T09:46:00.798Z,130.80
2019-03-01T09:47:01.738Z,139.70
2019-03-01T09:48:00.784Z,147.70
2019-03-01T09:49:00.765Z,148.40
2019-03-01T09:50:01.231Z,148.60
2019-03-01T09:51:00.744Z,135.40
2019-03-01T09:52:00.736Z,139.80
2019-03-01T09:53:00.733Z,135.20
2019-03-01T09:54:00.711Z,141.20
2019-03-01T09:55:00.700Z,139.60
2019-03-01T09:56:00.703Z,143.90
2019-03-01T09:57:00.677Z,142.50
2019-03-01T09:58:00.675Z,148.10
2019-03-01T09:59:00.658Z,150.30
2019-03-01T10:00:00.648Z,149.60
2019-03-01T10:01:00.634Z,142.20
2019-03-01T10:02:00.627Z,141.80
2019-03-01T10:03:00.622Z,143.10
2019-03-01T10:04:00.601Z,137.90
2019-03-01T10:05:00.590Z,142.00
2019-03-01T10:06:00.579Z,138.20
2019-03-01T10:07:00.568Z,137.20
2019-03-01T10:08:00.570Z,135.60
2019-03-01T10:09:00.546Z,128.50
2019-03-01T10:10:00.538Z,127.20
2019-03-01T10:11:00.525Z,128.90
2019-03-01T10:12:00.516Z,134.20
2019-03-01T10:13:00.514Z,126.30
2019-03-01T10:14:00.492Z,131.70
2019-03-01T10:15:00.491Z,125.60
2019-03-01T10:16:00.470Z,120.10
2019-03-01T10:17:00.459Z,137.20
2019-03-01T10:18:00.457Z,127.90
2019-03-01T10:19:00.439Z,129.90
2019-03-01T10:20:00.431Z,129.60
2019-03-01T10:21:00.416Z,134.00
2019-03-01T10:22:00.406Z,127.80
2019-03-01T10:23:00.407Z,131.10
2019-03-01T10:24:00.384Z,120.80
2019-03-01T10:25:00.372Z,126.70
2019-03-01T10:26:00.362Z,126.20
2019-03-01T10:27:00.354Z,128.60
2019-03-01T10:28:00.349Z,121.30
2019-03-01T10:29:00.330Z,120.60
2019-03-01T10:30:00.358Z,123.00
2019-03-01T10:31:00.307Z,124.20
2019-03-01T10:32:00.297Z,117.20
2019-03-01T10:33:00.295Z,119.80
2019-03-01T10:34:00.276Z,119.30
2019-03-01T10:35:00.264Z,117.80
2019-03-01T10:36:00.254Z,115.80
2019-03-01T10:37:00.245Z,120.70
2019-03-01T10:38:00.245Z,124.80
2019-03-01T10:39:00.222Z,119.60
2019-03-01T10:40:00.302Z,123.30
2019-03-01T10:41:00.200Z,122.70
2019-03-01T10:42:00.190Z,130.40
2019-03-01T10:43:00.186Z,122.50
2019-03-01T10:44:00.166Z,125.30
2019-03-01T10:45:00.225Z,115.50
2019-03-01T10:46:00.145Z,118.10
2019-03-01T10:47:00.136Z,119.50
2019-03-01T10:48:00.130Z,112.80
2019-03-01T10:49:00.114Z,108.30
2019-03-01T10:50:00.284Z,114.80
2019-03-01T10:51:00.092Z,119.20
2019-03-01T10:52:00.080Z,112.70
2019-03-01T10:53:00.077Z,115.00
2019-03-01T10:54:00.057Z,113.70
2019-03-01T10:55:00.049Z,107.10
2019-03-01T10:56:00.034Z,94.60
2019-03-01T10:57:00.025Z,96.90
2019-03-01T10:58:00.023Z,95.10
2019-03-01T10:59:00.003Z,97.90
2019-03-01T10:59:59.992Z,102.20
2019-03-01T11:00:59.983Z,103.40
2019-03-01T11:01:59.970Z,103.50
2019-03-01T11:02:59.970Z,97.00
2019-03-01T11:03:59.949Z,95.20
2019-03-01T11:04:59.937Z,100.00
2019-03-01T11:05:59.928Z,96.50
2019-03-01T11:06:59.923Z,97.80
2019-03-01T11:07:59.913Z,101.80
2019-03-01T11:08:59.896Z,99.40
2019-03-01T11:09:59.882Z,98.90
2019-03-01T11:10:59.885Z,99.90
2019-03-01T11:11:59.862Z,100.50
2019-03-01T11:12:59.864Z,101.40
2019-03-01T11:13:59.840Z,102.70
2019-03-01T11:14:59.829Z,101.20
2019-03-01T11:15:59.819Z,96.10
2019-03-01T11:16:59.808Z,97.10
2019-03-01T11:17:59.805Z,97.20
2019-03-01T11:18:59.786Z,96.00
2019-03-01T11:19:59.775Z,91.40
2019-03-01T11:20:59.763Z,97.20
2019-03-01T11:21:59.785Z,97.00
2019-03-01T11:22:59.753Z,95.40
2019-03-01T11:23:59.733Z,94.80
2019-03-01T11:24:59.721Z,99.20
2019-03-01T11:25:59.709Z,96.60
2019-03-01T11:26:59.698Z,100.00
2019-03-01T11:27:59.697Z,96.80
2019-03-01T11:28:59.676Z,100.70
2019-03-01T11:29:59.670Z,99.70
2019-03-01T11:30:59.658Z,104.40
2019-03-01T11:31:59.643Z,95.40
2019-03-01T11:32:59.642Z,97.70
2019-03-01T11:33:59.623Z,100.50
2019-03-01T11:34:59.615Z,103.00
2019-03-01T11:35:59.600Z,104.30
2019-03-01T11:36:59.590Z,102.40
2019-03-01T11:37:59.588Z,104.40
2019-03-01T11:38:59.569Z,104.00
2019-03-01T11:39:59.563Z,101.80
2019-03-01T11:40:59.547Z,99.90
2019-03-01T11:41:59.536Z,99.50
2019-03-01T11:42:59.533Z,104.00
2019-03-01T11:43:59.515Z,99.30
2019-03-01T11:44:59.503Z,92.10
2019-03-01T11:46:00.730Z,99.80
2019-03-01T11:46:59.482Z,96.80
2019-03-01T11:47:59.495Z,93.00
2019-03-01T11:48:59.462Z,86.40
2019-03-01T11:49:59.450Z,86.60
2019-03-01T11:50:59.443Z,87.40
2019-03-01T11:51:59.428Z,83.20
2019-03-01T11:52:59.420Z,86.00
2019-03-01T11:53:59.415Z,82.10
2019-03-01T11:54:59.397Z,80.70
2019-03-01T11:55:59.384Z,81.20
2019-03-01T11:56:59.375Z,81.40
2019-03-01T11:57:59.368Z,84.60
2019-03-01T11:58:59.360Z,84.70
2019-03-01T11:59:59.341Z,85.70
2019-03-01T12:00:59.331Z,84.10
2019-03-01T12:01:59.322Z,85.10
2019-03-01T12:02:59.310Z,89.50
2019-03-01T12:03:59.309Z,85.30
2019-03-01T12:04:59.287Z,85.70
2019-03-01T12:05:59.276Z,80.10
2019-03-01T12:06:59.265Z,83.30
2019-03-01T12:07:59.256Z,80.20
2019-03-01T12:08:59.267Z,76.90
2019-03-01T12:09:59.235Z,79.50
2019-03-01T12:10:59.223Z,78.50
2019-03-01T12:11:59.213Z,76.00
2019-03-01T12:12:59.200Z,75.40
2019-03-01T12:13:59.190Z,74.60
2019-03-01T12:14:59.190Z,72.00
2019-03-01T12:15:59.171Z,73.10
2019-03-01T12:16:59.159Z,71.30
2019-03-01T12:17:59.149Z,76.20
2019-03-01T12:18:59.140Z,70.20
2019-03-01T12:19:59.137Z,69.20
2019-03-01T12:20:59.116Z,72.50
2019-03-01T12:21:59.107Z,71.30
2019-03-01T12:22:59.094Z,71.00
2019-03-01T12:23:59.083Z,65.20
2019-03-01T12:24:59.082Z,68.30
2019-03-01T12:25:59.062Z,66.00
2019-03-01T12:26:59.051Z,65.80
2019-03-01T12:27:59.044Z,64.20
2019-03-01T12:28:59.030Z,65.10
2019-03-01T12:29:59.029Z,70.70
2019-03-01T12:30:59.009Z,65.80
2019-03-01T12:31:58.998Z,65.90
2019-03-01T12:32:58.991Z,63.10
2019-03-01T12:33:59.017Z,61.20
2019-03-01T12:34:58.975Z,61.00
2019-03-01T12:35:58.954Z,65.40
2019-03-01T12:36:58.947Z,61.90
2019-03-01T12:37:58.936Z,60.10
2019-03-01T12:38:58.922Z,61.60
2019-03-01T12:39:58.921Z,57.30
2019-03-01T12:40:58.900Z,53.00
2019-03-01T12:41:58.890Z,51.00
2019-03-01T12:42:58.880Z,50.60
2019-03-01T12:43:58.868Z,51.30
2019-03-01T12:44:58.867Z,51.70
2019-03-01T12:45:58.848Z,51.60
2019-03-01T12:46:58.835Z,54.40